Time;durP1;ratioP1;P1;durP2;ratioP2;P2;SDS_P1;SDS_P2;PMS_P1;PMS_P2;Temp;Humidity;BMP_temperature;BMP_pressure;BME280_temperature;BME280_humidity;BME280_pressure;Samples;Min_cycle;Max_cycle;Signal;HPM_P1;HPM_P2
2023/03/30 00:01:17;;;;;;;7.93;2.60;;;18.70;82.60;;;;;;7400007;19;20276;-69
2023/03/30 00:03:48;;;;;;;11.43;2.60;;;18.60;82.70;;;;;;7378388;19;20062;-71
2023/03/30 00:06:21;;;;;;;11.20;3.20;;;18.60;82.90;;;;;;7378381;19;20054;-71
2023/03/30 00:08:52;;;;;;;10.18;2.95;;;18.70;82.80;;;;;;7379502;19;20070;-70
2023/03/30 00:11:21;;;;;;;12.37;3.20;;;18.60;81.00;;;;;;7379551;19;20094;-70
2023/03/30 00:13:52;;;;;;;7.78;2.83;;;18.60;79.40;;;;;;7378609;19;20498;-69
2023/03/30 00:16:21;;;;;;;8.48;2.38;;;18.60;79.70;;;;;;7398533;19;20017;-70
2023/03/30 00:18:50;;;;;;;13.05;2.83;;;18.60;80.50;;;;;;7378438;19;20023;-71
2023/03/30 00:21:21;;;;;;;7.63;3.03;;;18.60;79.40;;;;;;7378912;19;20020;-70
2023/03/30 00:23:51;;;;;;;8.13;3.30;;;18.60;80.90;;;;;;7379229;19;20013;-69
2023/03/30 00:26:20;;;;;;;8.18;2.53;;;18.60;80.00;;;;;;7378603;19;20010;-71
2023/03/30 00:28:48;;;;;;;7.15;2.95;;;18.60;79.80;;;;;;7377947;19;20031;-70
2023/03/30 00:31:17;;;;;;;8.60;2.38;;;18.60;79.40;;;;;;7399734;19;20023;-70
2023/03/30 00:33:46;;;;;;;12.25;2.72;;;18.60;79.20;;;;;;7379669;19;20014;-70
2023/03/30 00:36:15;;;;;;;17.02;3.08;;;18.60;79.40;;;;;;7380149;19;20007;-71
2023/03/30 00:38:47;;;;;;;9.75;2.88;;;18.60;79.30;;;;;;7377455;19;20011;-72
2023/03/30 00:41:16;;;;;;;15.80;2.95;;;18.70;79.50;;;;;;7376555;19;20010;-71
2023/03/30 00:43:59;;;;;;;7.43;2.60;;;18.70;79.30;;;;;;7400636;19;20010;-71
2023/03/30 00:46:28;;;;;;;7.30;2.58;;;18.70;79.70;;;;;;7378065;19;20027;-72
2023/03/30 00:48:59;;;;;;;6.88;2.55;;;18.70;80.20;;;;;;7378292;19;20373;-72
2023/03/30 00:51:29;;;;;;;;;;;18.70;80.40;;;;;;7380863;19;20323;-72
2023/03/30 00:54:05;;;;;;;7.43;2.53;;;18.80;80.10;;;;;;7379833;19;19907;-71
2023/03/30 00:56:34;;;;;;;13.02;2.85;;;18.70;81.00;;;;;;7381463;19;20078;-71
2023/03/30 00:59:04;;;;;;;10.40;2.92;;;18.80;80.50;;;;;;7385537;19;20029;-71
2023/03/30 01:01:37;;;;;;;10.27;2.30;;;18.70;80.20;;;;;;7406352;19;20030;-71
2023/03/30 01:04:07;;;;;;;8.23;2.55;;;18.60;79.90;;;;;;7384360;19;20013;-72
2023/03/30 01:06:38;;;;;;;6.70;2.63;;;18.40;80.10;;;;;;7383815;19;20007;-70
2023/03/30 01:09:10;;;;;;;7.78;2.53;;;18.50;80.40;;;;;;7384814;19;20002;-72
2023/03/30 01:11:39;;;;;;;11.82;2.30;;;18.50;80.70;;;;;;7383577;19;20363;-71
2023/03/30 01:14:11;;;;;;;9.68;2.97;;;18.50;81.60;;;;;;7386241;19;20016;-72
2023/03/30 01:16:47;;;;;;;6.90;2.25;;;18.50;80.80;;;;;;7405171;19;20003;-72
2023/03/30 01:19:43;;;;;;;9.35;2.28;;;18.40;81.60;;;;;;7385399;19;20005;-71
2023/03/30 01:22:39;;;;;;;7.25;2.53;;;18.40;81.00;;;;;;7385066;19;20013;-71
2023/03/30 01:25:41;;;;;;;5.47;2.03;;;18.30;81.00;;;;;;7385010;19;20089;-71
2023/03/30 01:28:32;;;;;;;5.00;2.10;;;18.10;81.30;;;;;;7383449;19;20027;-72
2023/03/30 01:31:38;;;;;;;6.53;2.03;;;18.10;81.40;;;;;;7383382;19;20415;-73
2023/03/30 01:34:43;;;;;;;8.27;2.22;;;18.10;81.60;;;;;;7383562;19;20801;-71
2023/03/30 01:37:41;;;;;;;8.23;2.50;;;18.10;81.40;;;;;;7383715;19;20019;-71
2023/03/30 01:40:16;;;;;;;8.05;2.40;;;18.10;81.70;;;;;;7383183;19;20007;-71
2023/03/30 01:42:57;;;;;;;7.60;2.28;;;18.20;81.60;;;;;;7385451;19;20334;-72
2023/03/30 01:45:37;;;;;;;7.55;1.98;;;18.10;81.40;;;;;;7385589;19;20558;-72
2023/03/30 01:48:12;;;;;;;7.50;2.22;;;18.10;81.60;;;;;;7385423;19;20011;-72
2023/03/30 01:50:45;;;;;;;6.07;1.98;;;18.10;81.60;;;;;;7384066;19;20006;-72
2023/03/30 01:53:18;;;;;;;8.52;2.78;;;18.20;81.60;;;;;;7384145;19;20031;-72
2023/03/30 01:55:54;;;;;;;10.18;2.63;;;18.10;81.60;;;;;;7398903;19;20014;-72
2023/03/30 01:58:28;;;;;;;10.40;2.22;;;18.00;81.60;;;;;;7402884;19;20023;-72
2023/03/30 02:00:59;;;;;;;9.85;2.22;;;17.80;81.90;;;;;;7384642;19;20374;-72
2023/03/30 02:03:30;;;;;;;8.38;3.05;;;18.00;81.90;;;;;;7385112;19;20027;-72
2023/03/30 02:06:05;;;;;;;10.25;2.60;;;17.90;81.60;;;;;;7384841;19;20023;-70
2023/03/30 02:08:36;;;;;;;7.70;2.40;;;17.90;81.50;;;;;;7378925;19;20022;-71
2023/03/30 02:11:07;;;;;;;6.28;2.50;;;17.90;81.50;;;;;;7383625;19;20011;-71
2023/03/30 02:13:39;;;;;;;8.32;2.22;;;17.90;81.50;;;;;;7402274;19;20011;-70
2023/03/30 02:16:14;;;;;;;5.97;1.98;;;18.00;81.30;;;;;;7380920;19;20383;-71
2023/03/30 02:18:43;;;;;;;7.90;2.20;;;17.90;81.70;;;;;;7382367;19;20007;-71
2023/03/30 02:21:12;;;;;;;6.95;2.20;;;17.80;82.20;;;;;;7381409;19;20007;-71
2023/03/30 02:23:45;;;;;;;6.32;2.38;;;17.70;82.10;;;;;;7380994;19;20010;-71
2023/03/30 02:26:17;;;;;;;5.95;1.73;;;17.50;82.80;;;;;;7382769;19;19999;-71
2023/03/30 02:28:47;;;;;;;14.18;2.20;;;17.40;82.90;;;;;;7401974;19;20010;-70
2023/03/30 02:31:17;;;;;;;14.73;2.42;;;17.50;82.90;;;;;;7381738;19;20100;-71
2023/03/30 02:34:01;;;;;;;4.75;1.77;;;17.50;82.90;;;;;;7381786;19;20019;-71
2023/03/30 02:36:46;;;;;;;10.20;2.42;;;17.30;83.60;;;;;;7379654;19;20007;-71
2023/03/30 02:39:23;;;;;;;7.82;2.00;;;17.10;84.80;;;;;;7382596;19;20011;-71
2023/03/30 02:42:11;;;;;;;6.25;2.10;;;17.30;84.10;;;;;;7382861;19;20010;-71
2023/03/30 02:44:47;;;;;;;6.75;1.80;;;17.30;83.70;;;;;;7382465;19;20007;-71
2023/03/30 02:47:24;;;;;;;6.55;2.00;;;17.10;84.20;;;;;;7381960;19;20076;-71
2023/03/30 02:50:02;;;;;;;5.22;1.85;;;17.20;84.20;;;;;;7381459;19;20023;-71
2023/03/30 02:52:52;;;;;;;6.60;1.77;;;17.20;84.00;;;;;;7405400;19;20020;-71
2023/03/30 02:55:24;;;;;;;12.20;2.42;;;17.20;84.20;;;;;;7384203;19;20042;-71
2023/03/30 02:58:06;;;;;;;8.27;1.60;;;17.20;84.30;;;;;;7384045;19;20358;-71
2023/03/30 03:00:43;;;;;;;7.07;2.20;;;17.20;84.50;;;;;;7380958;19;20003;-71
2023/03/30 03:03:18;;;;;;;10.43;2.33;;;17.20;84.90;;;;;;7381560;19;20019;-71
2023/03/30 03:05:47;;;;;;;7.03;1.63;;;17.00;85.10;;;;;;7381707;19;20013;-70
2023/03/30 03:08:20;;;;;;;6.57;1.90;;;16.90;85.50;;;;;;7382405;19;20003;-73
2023/03/30 03:10:49;;;;;;;5.57;1.67;;;17.00;85.60;;;;;;7380974;19;20010;-72
2023/03/30 03:13:23;;;;;;;7.88;1.75;;;17.10;85.30;;;;;;7401844;19;20006;-72
2023/03/30 03:15:55;;;;;;;10.88;1.80;;;16.90;85.80;;;;;;7379796;19;20354;-72
2023/03/30 03:18:24;;;;;;;7.93;2.20;;;16.90;85.90;;;;;;7380398;19;20003;-72
2023/03/30 03:20:52;;;;;;;7.65;1.90;;;16.90;85.80;;;;;;7380874;19;20007;-72
2023/03/30 03:23:21;;;;;;;6.85;1.70;;;17.00;85.80;;;;;;7381070;19;20267;-71
2023/03/30 03:25:50;;;;;;;4.10;1.67;;;16.80;85.90;;;;;;7381082;19;20011;-73
2023/03/30 03:28:21;;;;;;;6.75;1.77;;;16.90;85.90;;;;;;7400490;19;20014;-72
2023/03/30 03:30:50;;;;;;;8.75;2.05;;;17.10;85.70;;;;;;7380564;19;20003;-72
2023/03/30 03:33:19;;;;;;;7.78;2.20;;;17.20;85.10;;;;;;7380452;19;20006;-72
2023/03/30 03:35:52;;;;;;;8.10;2.08;;;17.40;84.70;;;;;;7380714;19;20002;-72
2023/03/30 03:38:23;;;;;;;9.27;2.03;;;17.30;84.60;;;;;;7381922;19;20031;-71
2023/03/30 03:40:52;;;;;;;5.05;1.55;;;17.20;85.10;;;;;;7382448;19;20012;-71
2023/03/30 03:43:23;;;;;;;17.30;2.42;;;17.20;85.10;;;;;;7404693;19;20006;-71
2023/03/30 03:45:53;;;;;;;7.05;1.50;;;17.20;85.00;;;;;;7382310;19;20011;-71
2023/03/30 03:48:25;;;;;;;10.43;2.08;;;17.30;84.90;;;;;;7383033;19;20002;-72
2023/03/30 03:50:54;;;;;;;;;;;17.00;85.20;;;;;;7382428;19;20048;-72
2023/03/30 03:53:23;;;;;;;11.90;1.70;;;17.10;85.40;;;;;;7380097;19;19921;-72
2023/03/30 03:55:53;;;;;;;4.72;1.80;;;17.00;85.40;;;;;;7377728;19;20010;-72
2023/03/30 03:58:25;;;;;;;10.50;1.88;;;16.80;86.00;;;;;;7401180;19;20027;-72
2023/03/30 04:00:59;;;;;;;11.55;2.05;;;16.70;86.40;;;;;;7379926;19;20002;-72
2023/03/30 04:03:27;;;;;;;9.82;1.90;;;16.70;86.60;;;;;;7382476;19;20301;-71
2023/03/30 04:05:59;;;;;;;6.25;1.77;;;16.90;86.40;;;;;;7382668;19;20007;-71
2023/03/30 04:08:27;;;;;;;;;;;16.90;86.40;;;;;;7382097;19;20377;-71
2023/03/30 04:10:56;;;;;;;11.30;2.30;;;16.70;86.50;;;;;;7379257;19;19915;-71
2023/03/30 04:13:27;;;;;;;10.57;1.83;;;16.60;86.90;;;;;;7398762;19;20354;-71
2023/03/30 04:15:56;;;;;;;12.27;1.92;;;16.60;87.10;;;;;;7377974;19;20079;-71
2023/03/30 04:18:32;;;;;;;7.30;1.95;;;16.70;86.90;;;;;;7379806;19;20287;-70
2023/03/30 04:21:01;;;;;;;9.32;2.03;;;16.70;86.70;;;;;;7378570;19;20003;-70
2023/03/30 04:23:33;;;;;;;5.88;1.95;;;16.70;86.90;;;;;;7378225;19;20023;-71
2023/03/30 04:26:03;;;;;;;12.32;2.08;;;16.30;88.40;;;;;;7379707;19;20022;-71
2023/03/30 04:28:36;;;;;;;6.32;1.77;;;16.20;88.50;;;;;;7402385;19;20014;-71
2023/03/30 04:31:09;;;;;;;6.75;1.85;;;16.30;88.30;;;;;;7381074;19;20417;-70
2023/03/30 04:33:44;;;;;;;7.57;1.83;;;16.50;88.00;;;;;;7385799;19;20002;-70
2023/03/30 04:36:16;;;;;;;7.80;1.75;;;16.50;88.20;;;;;;7385324;19;19999;-70
2023/03/30 04:38:56;;;;;;;8.82;2.30;;;16.60;88.70;;;;;;7384005;19;20741;-71
2023/03/30 04:41:26;;;;;;;7.10;2.42;;;16.30;88.20;;;;;;7385895;19;20383;-71
2023/03/30 04:43:57;;;;;;;12.60;2.05;;;16.30;88.70;;;;;;7385770;19;20007;-70
2023/03/30 04:46:26;;;;;;;10.82;2.50;;;16.40;88.60;;;;;;7407307;19;20027;-71
2023/03/30 04:48:55;;;;;;;10.88;2.10;;;16.20;88.90;;;;;;7385068;19;20477;-71
2023/03/30 04:51:24;;;;;;;6.30;1.70;;;16.20;89.00;;;;;;7385545;19;20007;-71
2023/03/30 04:53:54;;;;;;;10.57;1.90;;;16.10;89.20;;;;;;7385052;19;20024;-71
2023/03/30 04:56:23;;;;;;;9.02;2.17;;;16.10;89.30;;;;;;7387045;19;20089;-71
2023/03/30 04:58:51;;;;;;;5.80;1.70;;;15.90;89.70;;;;;;7388365;19;19999;-71
2023/03/30 05:01:23;;;;;;;12.07;2.55;;;16.00;89.70;;;;;;7405677;19;20003;-71
2023/03/30 05:03:51;;;;;;;12.85;2.42;;;16.10;89.60;;;;;;7384702;19;20002;-71
2023/03/30 05:06:20;;;;;;;4.88;1.88;;;16.10;89.50;;;;;;7384721;19;20251;-71
2023/03/30 05:08:50;;;;;;;13.40;2.30;;;16.20;89.30;;;;;;7384938;19;20244;-71
2023/03/30 05:11:19;;;;;;;11.85;2.17;;;16.10;89.50;;;;;;7383156;19;20018;-71
2023/03/30 05:13:47;;;;;;;13.02;2.20;;;16.10;89.70;;;;;;7396017;19;20015;-72
2023/03/30 05:16:16;;;;;;;12.15;2.28;;;16.00;89.70;;;;;;7406650;19;20019;-71
2023/03/30 05:18:47;;;;;;;10.50;2.08;;;16.10;89.70;;;;;;7386122;19;20002;-72
2023/03/30 05:21:16;;;;;;;15.65;2.45;;;16.00;90.00;;;;;;7384450;19;20037;-72
2023/03/30 05:23:45;;;;;;;12.18;2.22;;;15.80;90.20;;;;;;7382756;19;20662;-72
2023/03/30 05:26:14;;;;;;;13.43;2.17;;;15.80;90.30;;;;;;7384550;19;20378;-72
2023/03/30 05:28:42;;;;;;;10.15;2.38;;;15.90;90.20;;;;;;7403157;19;20669;-72
2023/03/30 05:31:11;;;;;;;19.02;3.13;;;16.10;90.30;;;;;;7383593;19;20007;-71
2023/03/30 05:33:40;;;;;;;9.23;2.17;;;16.00;90.10;;;;;;7383620;19;20411;-71
2023/03/30 05:36:12;;;;;;;14.13;2.70;;;16.00;90.30;;;;;;7383773;19;20062;-71
2023/03/30 05:38:41;;;;;;;15.57;2.50;;;16.10;90.00;;;;;;7383881;19;20051;-71
2023/03/30 05:41:10;;;;;;;20.85;2.80;;;16.00;90.00;;;;;;7383063;19;20014;-72
2023/03/30 05:43:39;;;;;;;17.75;3.03;;;15.90;90.10;;;;;;7404041;19;20007;-71
2023/03/30 05:46:08;;;;;;;18.48;2.55;;;16.20;90.00;;;;;;7384852;19;20007;-71
2023/03/30 05:48:37;;;;;;;18.23;2.67;;;16.20;89.90;;;;;;7383605;19;20007;-71
2023/03/30 05:51:06;;;;;;;13.43;2.58;;;16.30;89.60;;;;;;7383873;19;20010;-71
2023/03/30 05:53:38;;;;;;;13.02;2.25;;;16.00;90.20;;;;;;7385661;19;20062;-71
2023/03/30 05:56:09;;;;;;;9.38;2.50;;;16.00;90.50;;;;;;7385189;19;22300;-71
2023/03/30 05:58:38;;;;;;;9.82;2.38;;;16.20;90.20;;;;;;7406121;19;20250;-71
2023/03/30 06:01:08;;;;;;;10.68;2.47;;;16.40;90.00;;;;;;7382740;19;20010;-71
2023/03/30 06:03:37;;;;;;;13.05;2.33;;;16.30;89.90;;;;;;7383700;19;20010;-72
2023/03/30 06:06:07;;;;;;;14.77;2.40;;;16.30;90.10;;;;;;7386488;19;20006;-72
2023/03/30 06:08:38;;;;;;;18.40;2.53;;;16.40;89.90;;;;;;7384924;19;20002;-71
2023/03/30 06:11:07;;;;;;;13.48;2.03;;;16.40;89.70;;;;;;7387133;19;20024;-71
2023/03/30 06:13:36;;;;;;;10.77;2.60;;;16.40;89.90;;;;;;7402575;19;20005;-71
2023/03/30 06:16:05;;;;;;;13.13;2.55;;;16.50;89.60;;;;;;7382351;19;20024;-71
2023/03/30 06:18:33;;;;;;;12.52;2.63;;;16.50;89.50;;;;;;7382397;19;20020;-71
2023/03/30 06:21:05;;;;;;;16.67;2.92;;;16.60;89.30;;;;;;7382390;19;20031;-72
2023/03/30 06:23:34;;;;;;;19.65;2.88;;;16.60;89.30;;;;;;7383095;19;20006;-72
2023/03/30 06:26:06;;;;;;;19.50;3.17;;;16.50;89.70;;;;;;7381169;19;20006;-71
2023/03/30 06:28:35;;;;;;;14.35;3.22;;;16.50;89.60;;;;;;7404440;19;20011;-71
2023/03/30 06:31:10;;;;;;;14.02;2.65;;;16.60;89.70;;;;;;7381758;19;20003;-71
2023/03/30 06:33:38;;;;;;;12.23;2.38;;;16.40;90.00;;;;;;7381862;19;20027;-72
2023/03/30 06:36:13;;;;;;;18.92;3.67;;;16.30;90.20;;;;;;7381351;19;20074;-71
2023/03/30 06:38:42;;;;;;;14.27;3.38;;;16.50;90.20;;;;;;7382013;19;20023;-71
2023/03/30 06:41:14;;;;;;;12.18;2.60;;;16.60;90.00;;;;;;7381253;19;20007;-71
2023/03/30 06:43:42;;;;;;;20.63;3.13;;;16.60;89.60;;;;;;7403605;19;20035;-72
2023/03/30 06:46:12;;;;;;;21.00;3.03;;;16.80;89.50;;;;;;7381290;19;20007;-72
2023/03/30 06:48:41;;;;;;;13.32;2.53;;;16.70;89.40;;;;;;7381272;19;20010;-71
2023/03/30 06:51:11;;;;;;;16.65;2.75;;;16.70;89.40;;;;;;7381501;19;20010;-71
2023/03/30 06:53:40;;;;;;;13.85;2.50;;;16.80;89.20;;;;;;7379253;19;20002;-72
2023/03/30 06:56:10;;;;;;;19.00;2.63;;;16.80;89.20;;;;;;7380332;19;20010;-72
2023/03/30 06:58:41;;;;;;;17.65;2.40;;;17.00;89.00;;;;;;7401806;19;20013;-72
2023/03/30 07:01:11;;;;;;;14.65;2.92;;;16.90;89.00;;;;;;7381187;19;20018;-72
2023/03/30 07:03:40;;;;;;;14.73;2.47;;;16.60;89.20;;;;;;7380340;19;20006;-72
2023/03/30 07:06:11;;;;;;;15.27;2.50;;;16.60;89.50;;;;;;7381243;19;20002;-72
2023/03/30 07:08:40;;;;;;;18.88;2.30;;;16.60;89.40;;;;;;7380405;19;20007;-72
2023/03/30 07:11:12;;;;;;;15.52;2.20;;;16.60;89.20;;;;;;7381311;19;20002;-76
2023/03/30 07:13:43;;;;;;;11.35;2.60;;;16.60;89.40;;;;;;7401375;19;20063;-73
2023/03/30 07:16:12;;;;;;;19.00;2.67;;;16.50;89.40;;;;;;7384040;19;20105;-74
2023/03/30 07:18:41;;;;;;;12.63;2.75;;;16.70;89.30;;;;;;7383130;19;20545;-74
2023/03/30 07:21:09;;;;;;;14.27;2.63;;;16.70;89.00;;;;;;7384893;19;20002;-72
2023/03/30 07:23:39;;;;;;;15.77;2.60;;;16.50;89.20;;;;;;7382095;19;20011;-72
2023/03/30 07:26:07;;;;;;;13.85;2.38;;;16.80;89.10;;;;;;7382541;19;20406;-73
2023/03/30 07:28:37;;;;;;;15.93;2.90;;;16.50;89.10;;;;;;7407340;19;20028;-72
2023/03/30 07:31:12;;;;;;;19.52;3.13;;;16.30;90.00;;;;;;7383355;19;20066;-71
2023/03/30 07:33:41;;;;;;;15.07;2.83;;;16.40;90.00;;;;;;7383511;19;20006;-72
2023/03/30 07:36:11;;;;;;;17.23;2.58;;;16.60;89.60;;;;;;7382297;19;20006;-72
2023/03/30 07:38:39;;;;;;;16.33;2.85;;;16.40;89.70;;;;;;7380509;19;20007;-72
2023/03/30 07:41:09;;;;;;;19.40;3.08;;;16.30;89.90;;;;;;7380468;19;19992;-73
2023/03/30 07:43:39;;;;;;;19.10;2.80;;;15.90;90.20;;;;;;7399937;19;20010;-73
2023/03/30 07:46:12;;;;;;;14.05;2.38;;;16.00;90.50;;;;;;7379621;19;20369;-74
2023/03/30 07:48:41;;;;;;;20.98;3.40;;;16.10;90.30;;;;;;7379262;19;20003;-75
2023/03/30 07:51:12;;;;;;;23.27;3.05;;;16.30;89.90;;;;;;7379208;19;20010;-72
2023/03/30 07:53:41;;;;;;;21.08;2.72;;;16.60;89.40;;;;;;7380180;19;20102;-72
2023/03/30 07:56:10;;;;;;;22.88;3.42;;;16.60;88.60;;;;;;7379152;19;20013;-73
2023/03/30 07:58:40;;;;;;;15.32;2.63;;;16.50;88.60;;;;;;7399059;19;20390;-73
2023/03/30 08:01:12;;;;;;;16.67;2.40;;;16.70;87.90;;;;;;7378520;19;20002;-72
2023/03/30 08:03:43;;;;;;;27.38;3.17;;;16.90;87.80;;;;;;7378269;19;20002;-73
2023/03/30 08:06:13;;;;;;;19.45;3.20;;;16.90;87.90;;;;;;7376831;19;20024;-71
2023/03/30 08:08:42;;;;;;;23.13;3.17;;;16.80;88.00;;;;;;7378903;19;20410;-72
2023/03/30 08:11:11;;;;;;;16.65;3.05;;;16.30;89.30;;;;;;7379909;19;20002;-73
2023/03/30 08:13:40;;;;;;;18.80;2.83;;;16.40;89.20;;;;;;7399226;19;20006;-72
2023/03/30 08:16:12;;;;;;;23.17;3.35;;;16.60;89.10;;;;;;7378870;19;20006;-73
2023/03/30 08:18:46;;;;;;;19.90;2.67;;;16.80;88.70;;;;;;7377396;19;20011;-72
2023/03/30 08:21:14;;;;;;;17.05;2.58;;;16.90;88.60;;;;;;7378892;19;20010;-72
2023/03/30 08:23:43;;;;;;;18.05;2.80;;;17.10;88.20;;;;;;7379341;19;20031;-74
2023/03/30 08:26:12;;;;;;;24.45;2.75;;;17.20;88.00;;;;;;7382224;19;20264;-73
2023/03/30 08:28:40;;;;;;;18.58;2.60;;;17.10;88.30;;;;;;7404146;19;20532;-74
2023/03/30 08:31:12;;;;;;;22.10;3.15;;;16.90;88.90;;;;;;7381174;19;20246;-72
2023/03/30 08:33:41;;;;;;;17.40;3.42;;;17.10;88.90;;;;;;7379015;19;20031;-73
2023/03/30 08:36:10;;;;;;;20.17;3.33;;;17.00;88.20;;;;;;7378789;19;20009;-72
2023/03/30 08:38:38;;;;;;;21.30;3.38;;;16.50;90.00;;;;;;7378225;19;20061;-72
2023/03/30 08:41:48;;;;;;;19.10;3.60;;;16.60;90.10;;;;;;7378429;19;20354;-72
2023/03/30 08:44:25;;;;;;;25.00;3.10;;;16.70;90.10;;;;;;7381199;19;20027;-73
2023/03/30 08:46:57;;;;;;;22.27;3.15;;;16.70;89.50;;;;;;7382051;19;20027;-74
2023/03/30 08:49:27;;;;;;;30.60;3.00;;;16.60;89.70;;;;;;7402593;19;20010;-73
2023/03/30 08:51:57;;;;;;;26.10;3.47;;;16.70;89.30;;;;;;7378019;19;20374;-73
2023/03/30 08:54:27;;;;;;;18.08;2.90;;;16.80;89.40;;;;;;7378617;19;20011;-74
2023/03/30 08:57:08;;;;;;;22.40;3.28;;;16.90;89.10;;;;;;7378284;19;20003;-75
2023/03/30 08:59:47;;;;;;;24.60;3.37;;;16.40;88.50;;;;;;7378207;19;20015;-74
2023/03/30 09:02:25;;;;;;;27.65;3.65;;;16.50;89.60;;;;;;7377793;19;20379;-74
2023/03/30 09:05:00;;;;;;;23.58;3.08;;;16.70;88.50;;;;;;7378500;19;20018;-74
2023/03/30 09:07:32;;;;;;;21.30;3.17;;;16.70;88.90;;;;;;7400084;19;20011;-73
2023/03/30 09:10:00;;;;;;;;;;;17.00;88.70;;;;;;7380260;19;20102;-73
2023/03/30 09:12:39;;;;;;;19.58;3.25;;;17.30;88.30;;;;;;7380086;19;19907;-73
2023/03/30 09:15:16;;;;;;;24.08;3.15;;;17.30;87.40;;;;;;7380598;19;20007;-74
2023/03/30 09:17:53;;;;;;;20.33;3.50;;;17.20;87.50;;;;;;7382202;19;20007;-72
2023/03/30 09:20:25;;;;;;;19.20;3.17;;;17.00;87.20;;;;;;7385064;19;20027;-73
2023/03/30 09:22:55;;;;;;;25.27;3.63;;;17.10;87.60;;;;;;7384464;19;20358;-72
2023/03/30 09:25:32;;;;;;;18.40;2.90;;;17.40;87.30;;;;;;7406671;19;20019;-73
2023/03/30 09:28:13;;;;;;;19.20;3.08;;;17.30;86.30;;;;;;7384333;19;20019;-73
2023/03/30 09:30:47;;;;;;;27.48;4.05;;;16.90;87.60;;;;;;7383942;19;20006;-71
2023/03/30 09:33:29;;;;;;;23.70;3.50;;;17.40;87.50;;;;;;7384243;19;20379;-72
2023/03/30 09:36:07;;;;;;;19.65;3.38;;;17.50;86.30;;;;;;7386708;19;20011;-72
2023/03/30 09:38:40;;;;;;;27.13;3.58;;;17.10;86.30;;;;;;7386375;19;20025;-72
2023/03/30 09:41:22;;;;;;;19.30;3.15;;;17.10;86.10;;;;;;7387250;19;20027;-72
2023/03/30 09:43:52;;;;;;;;;;;17.10;87.70;;;;;;7382245;19;20015;-71
2023/03/30 09:46:21;;;;;;;25.00;3.70;;;17.20;86.40;;;;;;7402427;19;20222;-72
2023/03/30 09:48:53;;;;;;;18.58;2.88;;;17.30;86.90;;;;;;7383004;19;20002;-72
2023/03/30 09:51:25;;;;;;;25.52;3.65;;;17.40;86.00;;;;;;7382666;19;20016;-72
2023/03/30 09:54:00;;;;;;;29.25;3.65;;;17.40;86.10;;;;;;7383536;19;20053;-72
2023/03/30 09:56:36;;;;;;;21.10;3.88;;;17.60;84.80;;;;;;7383668;19;20007;-71
2023/03/30 09:59:23;;;;;;;24.00;3.00;;;17.60;83.70;;;;;;7382053;19;20011;-74
2023/03/30 10:01:51;;;;;;;31.48;4.10;;;17.60;83.80;;;;;;7383900;19;20420;-72
2023/03/30 10:04:22;;;;;;;25.52;3.63;;;17.70;83.80;;;;;;7404846;19;20054;-73
2023/03/30 10:06:52;;;;;;;23.45;3.40;;;17.70;83.70;;;;;;7382300;19;20661;-72
2023/03/30 10:09:25;;;;;;;27.20;4.10;;;17.80;83.30;;;;;;7382735;19;20094;-72
2023/03/30 10:11:57;;;;;;;23.70;3.72;;;17.50;84.00;;;;;;7382757;19;20650;-72
2023/03/30 10:14:32;;;;;;;29.55;4.05;;;17.50;83.80;;;;;;7380776;19;20050;-73
2023/03/30 10:17:02;;;;;;;33.83;4.03;;;17.30;83.80;;;;;;7382402;19;20243;-71
2023/03/30 10:19:35;;;;;;;23.23;3.40;;;17.30;84.30;;;;;;7401404;19;20289;-71
2023/03/30 10:22:05;;;;;;;27.60;4.05;;;17.70;84.20;;;;;;7381638;19;20191;-71
2023/03/30 10:24:35;;;;;;;23.95;3.75;;;17.80;82.90;;;;;;7381948;19;20490;-72
2023/03/30 10:27:11;;;;;;;23.08;3.58;;;18.00;83.20;;;;;;7382457;19;20122;-71
2023/03/30 10:29:47;;;;;;;30.98;4.22;;;17.90;82.80;;;;;;7380226;19;20007;-72
2023/03/30 10:32:19;;;;;;;27.38;3.63;;;17.80;83.20;;;;;;7382814;19;19998;-72
2023/03/30 10:34:53;;;;;;;28.48;4.70;;;17.80;82.60;;;;;;7391599;19;20022;-72
2023/03/30 10:37:29;;;;;;;22.63;3.50;;;17.90;82.70;;;;;;7404350;19;20003;-71
2023/03/30 10:40:00;;;;;;;26.80;3.55;;;17.60;83.10;;;;;;7381438;19;20275;-74
2023/03/30 10:42:32;;;;;;;28.42;3.90;;;17.50;82.90;;;;;;7382181;19;20513;-73
2023/03/30 10:45:04;;;;;;;24.70;3.83;;;17.50;82.90;;;;;;7382701;19;20006;-72
2023/03/30 10:47:53;;;;;;;;;;;17.50;81.90;;;;;;7382262;19;20030;-72
2023/03/30 10:50:34;;;;;;;30.42;4.07;;;17.60;82.20;;;;;;7383739;19;20260;-73
2023/03/30 10:53:10;;;;;;;;;;;17.60;81.30;;;;;;7384696;19;19999;-72
2023/03/30 10:55:44;;;;;;;22.38;3.20;;;17.70;81.30;;;;;;7409020;19;19924;-72
2023/03/30 10:58:29;;;;;;;17.23;2.83;;;17.40;82.40;;;;;;7386100;19;20014;-72
2023/03/30 11:01:11;;;;;;;24.90;3.63;;;17.50;82.40;;;;;;7386600;19;20005;-72
2023/03/30 11:03:41;;;;;;;18.92;3.72;;;17.50;82.30;;;;;;7381683;19;20006;-72
2023/03/30 11:06:19;;;;;;;29.17;3.70;;;17.50;83.10;;;;;;7382903;19;20220;-73
2023/03/30 11:08:50;;;;;;;21.65;3.47;;;17.50;82.50;;;;;;7382200;19;20011;-73
2023/03/30 11:11:24;;;;;;;26.80;4.25;;;17.50;82.50;;;;;;7382473;19;20003;-72
2023/03/30 11:13:56;;;;;;;20.23;3.33;;;17.60;82.50;;;;;;7379536;19;20006;-72
2023/03/30 11:16:30;;;;;;;27.10;3.60;;;17.40;82.90;;;;;;7403238;19;20011;-73
2023/03/30 11:19:05;;;;;;;27.70;3.40;;;17.70;81.70;;;;;;7380488;19;20002;-73
2023/03/30 11:21:42;;;;;;;21.52;3.50;;;17.80;81.10;;;;;;7382015;19;20211;-73
2023/03/30 11:24:15;;;;;;;30.85;4.78;;;17.60;80.20;;;;;;7382352;19;20417;-72
2023/03/30 11:26:48;;;;;;;18.02;3.22;;;17.90;79.00;;;;;;7382882;19;20006;-73
2023/03/30 11:29:32;;;;;;;24.95;4.20;;;17.70;78.30;;;;;;7382555;19;20027;-72
2023/03/30 11:32:18;;;;;;;31.23;3.53;;;17.90;78.00;;;;;;7381404;19;20015;-73
2023/03/30 11:34:56;;;;;;;19.85;3.25;;;17.90;77.20;;;;;;7402099;19;20532;-72
2023/03/30 11:37:34;;;;;;;23.77;4.07;;;18.00;77.20;;;;;;7380007;19;20011;-72
2023/03/30 11:40:11;;;;;;;32.72;3.85;;;17.80;79.60;;;;;;7377904;19;20454;-74
2023/03/30 11:42:41;;;;;;;30.30;3.75;;;17.70;79.90;;;;;;7379606;19;20002;-71
2023/03/30 11:45:21;;;;;;;24.65;3.28;;;17.60;81.60;;;;;;7380329;19;20066;-73
2023/03/30 11:48:06;;;;;;;24.90;3.22;;;17.50;82.10;;;;;;7379216;19;20023;-72
2023/03/30 11:50:48;;;;;;;21.02;3.58;;;17.40;86.20;;;;;;7379972;19;20373;-72
2023/03/30 11:53:33;;;;;;;19.40;2.70;;;17.00;89.30;;;;;;7379036;19;20006;-72
2023/03/30 11:56:09;;;;;;;28.23;4.15;;;17.10;90.70;;;;;;7381075;19;20014;-73
2023/03/30 11:58:40;;;;;;;31.00;3.60;;;17.20;91.00;;;;;;7403787;19;20010;-72
2023/03/30 12:01:32;;;;;;;21.67;3.45;;;17.20;91.10;;;;;;7381706;19;20015;-73
2023/03/30 12:04:09;;;;;;;28.40;4.25;;;17.30;90.90;;;;;;7380270;19;20061;-72
2023/03/30 12:06:51;;;;;;;27.92;3.45;;;17.30;90.70;;;;;;7381282;19;20016;-73
2023/03/30 12:09:40;;;;;;;29.90;3.20;;;17.40;91.60;;;;;;7381495;19;20014;-77
2023/03/30 12:12:14;;;;;;;27.45;4.00;;;17.40;90.80;;;;;;7384050;19;20006;-73
2023/03/30 12:15:09;;;;;;;20.67;3.72;;;17.60;91.10;;;;;;7381587;19;20013;-73
2023/03/30 12:17:48;;;;;;;26.33;3.70;;;17.70;91.40;;;;;;7381748;19;19998;-73
2023/03/30 12:20:41;;;;;;;28.98;3.80;;;17.90;91.50;;;;;;7379514;19;20263;-75
2023/03/30 12:23:24;;;;;;;26.90;4.30;;;17.50;91.50;;;;;;7381042;19;20014;-73
2023/03/30 12:26:10;;;;;;;24.75;3.97;;;17.80;90.70;;;;;;7378261;19;20014;-73
2023/03/30 12:28:52;;;;;;;32.40;3.88;;;17.70;90.70;;;;;;7400488;19;20010;-72
2023/03/30 12:31:21;;;;;;;26.27;3.55;;;18.10;90.60;;;;;;7381096;19;19999;-74
2023/03/30 12:34:10;;;;;;;30.15;3.78;;;18.40;90.20;;;;;;7383740;19;20003;-74
2023/03/30 12:36:41;;;;;;;30.35;4.28;;;18.70;89.10;;;;;;7382691;19;20015;-73
2023/03/30 12:39:31;;;;;;;26.10;3.47;;;18.50;87.30;;;;;;7383704;19;20066;-74
2023/03/30 12:42:08;;;;;;;29.15;3.78;;;18.50;85.70;;;;;;7380012;19;20015;-76
2023/03/30 12:45:03;;;;;;;25.50;3.22;;;18.40;84.40;;;;;;7378369;19;20256;-76
2023/03/30 12:48:09;;;;;;;21.92;3.75;;;18.20;84.60;;;;;;7381339;19;20018;-72
2023/03/30 12:50:47;;;;;;;26.27;3.75;;;17.90;86.30;;;;;;7379017;19;20003;-71
2023/03/30 12:54:00;;;;;;;23.10;3.50;;;18.00;87.10;;;;;;7385142;19;20002;-74
2023/03/30 12:56:39;;;;;;;22.83;3.35;;;18.20;87.50;;;;;;7385697;19;20573;-72
2023/03/30 12:59:57;;;;;;;31.40;3.78;;;18.10;86.90;;;;;;7386527;19;20051;-72
2023/03/30 13:03:07;;;;;;;26.83;4.20;;;18.20;87.90;;;;;;7387338;19;20007;-71
2023/03/30 13:05:41;;;;;;;21.90;3.42;;;18.20;86.70;;;;;;7382685;19;20689;-71
2023/03/30 13:08:18;;;;;;;18.77;3.72;;;18.30;85.70;;;;;;7384918;19;20014;-72
2023/03/30 13:10:47;;;;;;;24.58;3.00;;;18.30;86.60;;;;;;7408912;19;20379;-72
2023/03/30 13:13:46;;;;;;;21.67;2.75;;;18.50;86.30;;;;;;7387146;19;20020;-74
2023/03/30 13:16:48;;;;;;;13.23;2.42;;;18.70;85.10;;;;;;7386539;19;20020;-75